sensor_id;sensor_type;location;lat;lon;timestamp;P1;durP1;ratioP1;P2;durP2;ratioP2
45007;SDS011;30743;52.008;5.644;2023-06-10T00:00:41;7.03;;;4.20;;
45007;SDS011;30743;52.008;5.644;2023-06-10T00:03:07;7.82;;;4.15;;
45007;SDS011;30743;52.008;5.644;2023-06-10T00:05:37;5.28;;;4.20;;
45007;SDS011;30743;52.008;5.644;2023-06-10T00:08:03;6.05;;;4.38;;
45007;SDS011;30743;52.008;5.644;2023-06-10T00:10:32;6.95;;;4.22;;
45007;SDS011;30743;52.008;5.644;2023-06-10T00:13:00;8.20;;;4.32;;
45007;SDS011;30743;52.008;5.644;2023-06-10T00:15:26;6.03;;;4.10;;
45007;SDS011;30743;52.008;5.644;2023-06-10T00:17:51;6.78;;;4.60;;
45007;SDS011;30743;52.008;5.644;2023-06-10T00:20:20;10.17;;;4.63;;
45007;SDS011;30743;52.008;5.644;2023-06-10T00:22:48;7.28;;;4.07;;
45007;SDS011;30743;52.008;5.644;2023-06-10T00:25:14;6.22;;;3.80;;
45007;SDS011;30743;52.008;5.644;2023-06-10T00:27:40;5.47;;;4.20;;
45007;SDS011;30743;52.008;5.644;2023-06-10T00:30:06;11.55;;;4.65;;
45007;SDS011;30743;52.008;5.644;2023-06-10T00:32:35;6.95;;;3.88;;
45007;SDS011;30743;52.008;5.644;2023-06-10T00:35:02;5.60;;;4.07;;
45007;SDS011;30743;52.008;5.644;2023-06-10T00:37:28;4.68;;;4.03;;
45007;SDS011;30743;52.008;5.644;2023-06-10T00:39:54;4.82;;;3.88;;
45007;SDS011;30743;52.008;5.644;2023-06-10T00:42:20;10.68;;;3.70;;
45007;SDS011;30743;52.008;5.644;2023-06-10T00:44:47;4.80;;;4.00;;
45007;SDS011;30743;52.008;5.644;2023-06-10T00:47:13;5.35;;;3.70;;
45007;SDS011;30743;52.008;5.644;2023-06-10T00:49:39;5.88;;;3.88;;
45007;SDS011;30743;52.008;5.644;2023-06-10T00:52:05;6.28;;;3.55;;
45007;SDS011;30743;52.008;5.644;2023-06-10T00:54:32;5.93;;;4.10;;
45007;SDS011;30743;52.008;5.644;2023-06-10T00:57:00;5.25;;;4.03;;
45007;SDS011;30743;52.008;5.644;2023-06-10T00:59:28;6.38;;;4.07;;
45007;SDS011;30743;52.008;5.644;2023-06-10T01:01:54;5.10;;;3.58;;
45007;SDS011;30743;52.008;5.644;2023-06-10T01:04:21;6.18;;;3.95;;
45007;SDS011;30743;52.008;5.644;2023-06-10T01:12:47;5.32;;;3.35;;
45007;SDS011;30743;52.008;5.644;2023-06-10T01:15:19;5.35;;;4.00;;
45007;SDS011;30743;52.008;5.644;2023-06-10T01:17:56;5.82;;;3.83;;
45007;SDS011;30743;52.008;5.644;2023-06-10T01:20:25;6.95;;;4.25;;
45007;SDS011;30743;52.008;5.644;2023-06-10T01:22:53;4.65;;;3.50;;
45007;SDS011;30743;52.008;5.644;2023-06-10T01:25:22;5.22;;;3.88;;
45007;SDS011;30743;52.008;5.644;2023-06-10T01:27:53;5.80;;;3.80;;
45007;SDS011;30743;52.008;5.644;2023-06-10T01:30:40;4.72;;;3.80;;
45007;SDS011;30743;52.008;5.644;2023-06-10T01:33:08;4.10;;;3.35;;
45007;SDS011;30743;52.008;5.644;2023-06-10T01:35:36;6.32;;;3.53;;
45007;SDS011;30743;52.008;5.644;2023-06-10T01:38:02;6.03;;;3.55;;
45007;SDS011;30743;52.008;5.644;2023-06-10T01:40:29;7.90;;;3.63;;
45007;SDS011;30743;52.008;5.644;2023-06-10T01:42:55;7.45;;;3.70;;
45007;SDS011;30743;52.008;5.644;2023-06-10T01:45:21;5.60;;;3.90;;
45007;SDS011;30743;52.008;5.644;2023-06-10T01:47:47;4.38;;;3.60;;
45007;SDS011;30743;52.008;5.644;2023-06-10T01:50:12;5.00;;;3.25;;
45007;SDS011;30743;52.008;5.644;2023-06-10T01:52:38;5.65;;;3.40;;
45007;SDS011;30743;52.008;5.644;2023-06-10T01:55:03;6.97;;;3.47;;
45007;SDS011;30743;52.008;5.644;2023-06-10T01:57:29;7.80;;;3.88;;
45007;SDS011;30743;52.008;5.644;2023-06-10T01:59:55;5.88;;;3.53;;
45007;SDS011;30743;52.008;5.644;2023-06-10T02:02:20;4.50;;;3.30;;
45007;SDS011;30743;52.008;5.644;2023-06-10T02:04:47;8.38;;;3.63;;
45007;SDS011;30743;52.008;5.644;2023-06-10T02:07:12;4.25;;;3.38;;
45007;SDS011;30743;52.008;5.644;2023-06-10T02:09:38;5.88;;;3.40;;
45007;SDS011;30743;52.008;5.644;2023-06-10T02:12:04;5.75;;;3.78;;
45007;SDS011;30743;52.008;5.644;2023-06-10T02:14:31;4.70;;;3.13;;
45007;SDS011;30743;52.008;5.644;2023-06-10T02:16:57;4.20;;;2.92;;
45007;SDS011;30743;52.008;5.644;2023-06-10T02:19:23;4.97;;;3.35;;
45007;SDS011;30743;52.008;5.644;2023-06-10T02:21:51;5.30;;;3.03;;
45007;SDS011;30743;52.008;5.644;2023-06-10T02:24:17;6.53;;;3.70;;
45007;SDS011;30743;52.008;5.644;2023-06-10T02:26:42;5.20;;;3.10;;
45007;SDS011;30743;52.008;5.644;2023-06-10T02:29:08;5.20;;;3.47;;
45007;SDS011;30743;52.008;5.644;2023-06-10T02:31:33;5.88;;;3.50;;
45007;SDS011;30743;52.008;5.644;2023-06-10T02:34:00;5.50;;;3.67;;
45007;SDS011;30743;52.008;5.644;2023-06-10T02:36:26;4.30;;;3.10;;
45007;SDS011;30743;52.008;5.644;2023-06-10T02:38:52;5.20;;;3.45;;
45007;SDS011;30743;52.008;5.644;2023-06-10T02:41:18;6.15;;;3.30;;
45007;SDS011;30743;52.008;5.644;2023-06-10T02:43:44;5.30;;;3.45;;
45007;SDS011;30743;52.008;5.644;2023-06-10T02:46:10;5.22;;;3.90;;
45007;SDS011;30743;52.008;5.644;2023-06-10T02:48:42;4.03;;;3.10;;
45007;SDS011;30743;52.008;5.644;2023-06-10T02:51:10;6.15;;;3.58;;
45007;SDS011;30743;52.008;5.644;2023-06-10T02:53:36;5.85;;;3.83;;
45007;SDS011;30743;52.008;5.644;2023-06-10T02:56:01;6.38;;;3.20;;
45007;SDS011;30743;52.008;5.644;2023-06-10T02:58:27;4.20;;;3.10;;
45007;SDS011;30743;52.008;5.644;2023-06-10T03:00:53;5.45;;;3.45;;
45007;SDS011;30743;52.008;5.644;2023-06-10T03:03:18;5.82;;;3.20;;
45007;SDS011;30743;52.008;5.644;2023-06-10T03:05:45;4.05;;;2.85;;
45007;SDS011;30743;52.008;5.644;2023-06-10T03:08:10;5.82;;;3.08;;
45007;SDS011;30743;52.008;5.644;2023-06-10T03:10:36;4.93;;;3.22;;
45007;SDS011;30743;52.008;5.644;2023-06-10T03:13:01;10.35;;;3.65;;
45007;SDS011;30743;52.008;5.644;2023-06-10T03:15:27;4.57;;;3.30;;
45007;SDS011;30743;52.008;5.644;2023-06-10T03:17:54;5.28;;;3.20;;
45007;SDS011;30743;52.008;5.644;2023-06-10T03:20:20;8.70;;;4.30;;
45007;SDS011;30743;52.008;5.644;2023-06-10T03:22:46;7.32;;;4.00;;
45007;SDS011;30743;52.008;5.644;2023-06-10T03:25:12;5.40;;;3.30;;
45007;SDS011;30743;52.008;5.644;2023-06-10T03:27:39;5.40;;;3.45;;
45007;SDS011;30743;52.008;5.644;2023-06-10T03:30:05;6.22;;;3.50;;
45007;SDS011;30743;52.008;5.644;2023-06-10T03:32:31;9.25;;;3.60;;
45007;SDS011;30743;52.008;5.644;2023-06-10T03:34:57;6.80;;;3.58;;
45007;SDS011;30743;52.008;5.644;2023-06-10T03:37:23;5.90;;;3.58;;
45007;SDS011;30743;52.008;5.644;2023-06-10T03:39:50;7.72;;;3.22;;
45007;SDS011;30743;52.008;5.644;2023-06-10T03:42:15;6.38;;;3.55;;
45007;SDS011;30743;52.008;5.644;2023-06-10T03:44:41;10.02;;;3.53;;
45007;SDS011;30743;52.008;5.644;2023-06-10T03:47:06;4.93;;;3.47;;
45007;SDS011;30743;52.008;5.644;2023-06-10T03:49:32;5.72;;;3.53;;
45007;SDS011;30743;52.008;5.644;2023-06-10T03:51:58;5.30;;;3.72;;
45007;SDS011;30743;52.008;5.644;2023-06-10T03:54:23;4.43;;;3.20;;
45007;SDS011;30743;52.008;5.644;2023-06-10T03:56:49;5.72;;;3.40;;
45007;SDS011;30743;52.008;5.644;2023-06-10T03:59:15;6.70;;;3.42;;
45007;SDS011;30743;52.008;5.644;2023-06-10T04:01:41;9.30;;;3.03;;
45007;SDS011;30743;52.008;5.644;2023-06-10T04:04:06;5.55;;;3.38;;
45007;SDS011;30743;52.008;5.644;2023-06-10T04:06:32;7.93;;;4.18;;
45007;SDS011;30743;52.008;5.644;2023-06-10T04:08:57;7.57;;;3.78;;
45007;SDS011;30743;52.008;5.644;2023-06-10T04:11:23;5.32;;;2.80;;
45007;SDS011;30743;52.008;5.644;2023-06-10T04:13:49;6.53;;;3.38;;
45007;SDS011;30743;52.008;5.644;2023-06-10T04:16:16;8.27;;;3.65;;
45007;SDS011;30743;52.008;5.644;2023-06-10T04:18:41;9.35;;;3.92;;
45007;SDS011;30743;52.008;5.644;2023-06-10T04:21:07;6.38;;;3.38;;
45007;SDS011;30743;52.008;5.644;2023-06-10T04:23:34;4.32;;;3.25;;
45007;SDS011;30743;52.008;5.644;2023-06-10T04:26:02;5.43;;;3.33;;
45007;SDS011;30743;52.008;5.644;2023-06-10T04:28:27;9.52;;;3.10;;
45007;SDS011;30743;52.008;5.644;2023-06-10T04:30:53;6.03;;;3.20;;
45007;SDS011;30743;52.008;5.644;2023-06-10T04:33:18;7.90;;;3.42;;
45007;SDS011;30743;52.008;5.644;2023-06-10T04:35:44;5.13;;;3.70;;
45007;SDS011;30743;52.008;5.644;2023-06-10T04:38:12;8.70;;;3.95;;
45007;SDS011;30743;52.008;5.644;2023-06-10T04:40:38;6.47;;;3.60;;
45007;SDS011;30743;52.008;5.644;2023-06-10T04:43:04;8.25;;;3.20;;
45007;SDS011;30743;52.008;5.644;2023-06-10T04:45:30;6.28;;;4.07;;
45007;SDS011;30743;52.008;5.644;2023-06-10T04:47:56;7.22;;;3.63;;
45007;SDS011;30743;52.008;5.644;2023-06-10T04:50:22;6.03;;;3.35;;
45007;SDS011;30743;52.008;5.644;2023-06-10T04:52:48;9.15;;;3.67;;
45007;SDS011;30743;52.008;5.644;2023-06-10T04:55:14;6.47;;;3.90;;
45007;SDS011;30743;52.008;5.644;2023-06-10T04:57:40;6.72;;;4.05;;
45007;SDS011;30743;52.008;5.644;2023-06-10T05:00:06;5.95;;;3.60;;
45007;SDS011;30743;52.008;5.644;2023-06-10T05:02:33;5.97;;;3.75;;
45007;SDS011;30743;52.008;5.644;2023-06-10T05:04:59;5.05;;;3.78;;
45007;SDS011;30743;52.008;5.644;2023-06-10T05:07:25;5.90;;;3.67;;
45007;SDS011;30743;52.008;5.644;2023-06-10T05:09:50;6.03;;;3.25;;
45007;SDS011;30743;52.008;5.644;2023-06-10T05:12:16;8.05;;;3.92;;
45007;SDS011;30743;52.008;5.644;2023-06-10T05:14:42;5.53;;;3.55;;
45007;SDS011;30743;52.008;5.644;2023-06-10T05:17:07;4.47;;;3.10;;
45007;SDS011;30743;52.008;5.644;2023-06-10T05:19:33;5.95;;;4.00;;
45007;SDS011;30743;52.008;5.644;2023-06-10T05:22:00;12.32;;;3.78;;
45007;SDS011;30743;52.008;5.644;2023-06-10T05:24:27;4.78;;;2.95;;
45007;SDS011;30743;52.008;5.644;2023-06-10T05:26:53;6.82;;;3.20;;
45007;SDS011;30743;52.008;5.644;2023-06-10T05:29:18;3.72;;;2.55;;
45007;SDS011;30743;52.008;5.644;2023-06-10T05:31:44;6.70;;;3.40;;
45007;SDS011;30743;52.008;5.644;2023-06-10T05:34:10;5.18;;;2.90;;
45007;SDS011;30743;52.008;5.644;2023-06-10T05:36:36;5.13;;;2.40;;
45007;SDS011;30743;52.008;5.644;2023-06-10T05:39:01;5.32;;;3.10;;
45007;SDS011;30743;52.008;5.644;2023-06-10T05:41:27;5.55;;;3.28;;
45007;SDS011;30743;52.008;5.644;2023-06-10T05:43:53;5.93;;;2.97;;
45007;SDS011;30743;52.008;5.644;2023-06-10T05:46:19;6.10;;;3.70;;
45007;SDS011;30743;52.008;5.644;2023-06-10T05:48:45;3.63;;;2.67;;
45007;SDS011;30743;52.008;5.644;2023-06-10T05:51:10;3.95;;;2.90;;
45007;SDS011;30743;52.008;5.644;2023-06-10T05:53:36;3.72;;;2.80;;
45007;SDS011;30743;52.008;5.644;2023-06-10T05:56:01;5.38;;;2.67;;
45007;SDS011;30743;52.008;5.644;2023-06-10T05:58:27;3.90;;;2.65;;
45007;SDS011;30743;52.008;5.644;2023-06-10T06:00:52;5.18;;;2.83;;
45007;SDS011;30743;52.008;5.644;2023-06-10T06:03:18;4.97;;;3.00;;
45007;SDS011;30743;52.008;5.644;2023-06-10T06:05:44;5.28;;;2.67;;
45007;SDS011;30743;52.008;5.644;2023-06-10T06:08:11;5.47;;;2.90;;
45007;SDS011;30743;52.008;5.644;2023-06-10T06:10:38;7.18;;;2.85;;
45007;SDS011;30743;52.008;5.644;2023-06-10T06:13:03;3.15;;;2.42;;
45007;SDS011;30743;52.008;5.644;2023-06-10T06:15:29;3.67;;;2.67;;
45007;SDS011;30743;52.008;5.644;2023-06-10T06:17:55;4.38;;;2.47;;
45007;SDS011;30743;52.008;5.644;2023-06-10T06:20:21;5.78;;;3.05;;
45007;SDS011;30743;52.008;5.644;2023-06-10T06:22:47;6.90;;;3.38;;
45007;SDS011;30743;52.008;5.644;2023-06-10T06:25:12;4.75;;;2.92;;
45007;SDS011;30743;52.008;5.644;2023-06-10T06:27:38;4.63;;;2.85;;
45007;SDS011;30743;52.008;5.644;2023-06-10T06:30:04;9.10;;;3.60;;
45007;SDS011;30743;52.008;5.644;2023-06-10T06:32:30;11.30;;;3.50;;
45007;SDS011;30743;52.008;5.644;2023-06-10T06:34:56;6.88;;;3.35;;
45007;SDS011;30743;52.008;5.644;2023-06-10T06:37:21;9.55;;;3.20;;
45007;SDS011;30743;52.008;5.644;2023-06-10T06:39:49;10.07;;;3.70;;
45007;SDS011;30743;52.008;5.644;2023-06-10T06:42:19;5.72;;;3.40;;
45007;SDS011;30743;52.008;5.644;2023-06-10T06:44:45;6.13;;;4.20;;
45007;SDS011;30743;52.008;5.644;2023-06-10T06:47:12;7.55;;;3.53;;
45007;SDS011;30743;52.008;5.644;2023-06-10T06:49:37;6.15;;;4.00;;
45007;SDS011;30743;52.008;5.644;2023-06-10T06:52:03;7.20;;;3.55;;
45007;SDS011;30743;52.008;5.644;2023-06-10T06:54:29;8.75;;;3.25;;
45007;SDS011;30743;52.008;5.644;2023-06-10T06:56:55;6.95;;;3.00;;
45007;SDS011;30743;52.008;5.644;2023-06-10T06:59:20;10.70;;;3.58;;
45007;SDS011;30743;52.008;5.644;2023-06-10T07:01:46;5.80;;;3.10;;
45007;SDS011;30743;52.008;5.644;2023-06-10T07:04:12;6.82;;;3.10;;
45007;SDS011;30743;52.008;5.644;2023-06-10T07:06:39;3.92;;;3.00;;
45007;SDS011;30743;52.008;5.644;2023-06-10T07:09:05;4.68;;;2.60;;
45007;SDS011;30743;52.008;5.644;2023-06-10T07:11:31;5.80;;;3.40;;
45007;SDS011;30743;52.008;5.644;2023-06-10T07:13:57;6.40;;;3.22;;
45007;SDS011;30743;52.008;5.644;2023-06-10T07:16:22;5.75;;;3.13;;
45007;SDS011;30743;52.008;5.644;2023-06-10T07:18:48;10.32;;;3.78;;
45007;SDS011;30743;52.008;5.644;2023-06-10T07:21:13;5.22;;;3.17;;
45007;SDS011;30743;52.008;5.644;2023-06-10T07:23:42;4.32;;;3.20;;
45007;SDS011;30743;52.008;5.644;2023-06-10T07:26:08;7.10;;;2.92;;
45007;SDS011;30743;52.008;5.644;2023-06-10T07:28:36;5.35;;;3.00;;
45007;SDS011;30743;52.008;5.644;2023-06-10T07:31:05;7.22;;;3.15;;
45007;SDS011;30743;52.008;5.644;2023-06-10T07:33:31;6.18;;;3.45;;
45007;SDS011;30743;52.008;5.644;2023-06-10T07:35:57;10.57;;;3.70;;
45007;SDS011;30743;52.008;5.644;2023-06-10T07:38:22;8.38;;;3.28;;
45007;SDS011;30743;52.008;5.644;2023-06-10T07:40:48;5.55;;;3.55;;
45007;SDS011;30743;52.008;5.644;2023-06-10T07:43:13;4.65;;;3.15;;
45007;SDS011;30743;52.008;5.644;2023-06-10T07:45:39;7.18;;;3.13;;
45007;SDS011;30743;52.008;5.644;2023-06-10T07:48:06;4.65;;;3.05;;
45007;SDS011;30743;52.008;5.644;2023-06-10T07:50:32;6.75;;;3.20;;
45007;SDS011;30743;52.008;5.644;2023-06-10T07:52:57;7.50;;;3.28;;
45007;SDS011;30743;52.008;5.644;2023-06-10T07:55:23;5.85;;;3.00;;
45007;SDS011;30743;52.008;5.644;2023-06-10T07:57:50;4.20;;;2.92;;
45007;SDS011;30743;52.008;5.644;2023-06-10T08:00:16;10.30;;;3.97;;
45007;SDS011;30743;52.008;5.644;2023-06-10T08:02:42;6.30;;;3.22;;
45007;SDS011;30743;52.008;5.644;2023-06-10T08:05:08;9.60;;;3.50;;
45007;SDS011;30743;52.008;5.644;2023-06-10T08:07:33;6.70;;;3.08;;
45007;SDS011;30743;52.008;5.644;2023-06-10T08:10:00;7.22;;;3.40;;
45007;SDS011;30743;52.008;5.644;2023-06-10T08:12:26;5.90;;;3.15;;
45007;SDS011;30743;52.008;5.644;2023-06-10T08:14:52;4.90;;;3.10;;
45007;SDS011;30743;52.008;5.644;2023-06-10T08:17:17;7.80;;;2.90;;
45007;SDS011;30743;52.008;5.644;2023-06-10T08:19:43;4.57;;;2.63;;
45007;SDS011;30743;52.008;5.644;2023-06-10T08:22:08;5.50;;;2.75;;
45007;SDS011;30743;52.008;5.644;2023-06-10T08:24:34;5.20;;;2.80;;
45007;SDS011;30743;52.008;5.644;2023-06-10T08:27:00;6.60;;;3.00;;
45007;SDS011;30743;52.008;5.644;2023-06-10T08:29:25;5.45;;;3.20;;
45007;SDS011;30743;52.008;5.644;2023-06-10T08:31:51;7.05;;;3.00;;
45007;SDS011;30743;52.008;5.644;2023-06-10T08:34:17;3.65;;;2.45;;
45007;SDS011;30743;52.008;5.644;2023-06-10T08:36:43;3.95;;;2.95;;
45007;SDS011;30743;52.008;5.644;2023-06-10T08:39:09;6.38;;;3.00;;
45007;SDS011;30743;52.008;5.644;2023-06-10T08:41:35;7.00;;;3.03;;
45007;SDS011;30743;52.008;5.644;2023-06-10T08:47:08;4.97;;;2.88;;
45007;SDS011;30743;52.008;5.644;2023-06-10T08:49:43;5.53;;;3.08;;
45007;SDS011;30743;52.008;5.644;2023-06-10T08:52:16;5.13;;;2.63;;
45007;SDS011;30743;52.008;5.644;2023-06-10T08:54:59;4.63;;;3.08;;
45007;SDS011;30743;52.008;5.644;2023-06-10T08:57:27;4.80;;;3.20;;
45007;SDS011;30743;52.008;5.644;2023-06-10T08:59:56;4.47;;;2.83;;
45007;SDS011;30743;52.008;5.644;2023-06-10T09:02:22;5.50;;;2.90;;
45007;SDS011;30743;52.008;5.644;2023-06-10T09:04:49;6.22;;;2.67;;
45007;SDS011;30743;52.008;5.644;2023-06-10T09:07:15;6.90;;;2.65;;
45007;SDS011;30743;52.008;5.644;2023-06-10T09:09:44;5.65;;;3.08;;
45007;SDS011;30743;52.008;5.644;2023-06-10T09:12:11;5.15;;;2.75;;
45007;SDS011;30743;52.008;5.644;2023-06-10T09:14:38;4.68;;;3.00;;
45007;SDS011;30743;52.008;5.644;2023-06-10T09:17:03;13.00;;;3.22;;
45007;SDS011;30743;52.008;5.644;2023-06-10T09:19:30;3.58;;;2.45;;
45007;SDS011;30743;52.008;5.644;2023-06-10T09:21:56;5.18;;;2.45;;
45007;SDS011;30743;52.008;5.644;2023-06-10T09:24:22;3.42;;;2.80;;
45007;SDS011;30743;52.008;5.644;2023-06-10T09:26:48;6.55;;;2.47;;
45007;SDS011;30743;52.008;5.644;2023-06-10T09:29:15;4.75;;;2.55;;
45007;SDS011;30743;52.008;5.644;2023-06-10T09:31:41;4.78;;;2.97;;
45007;SDS011;30743;52.008;5.644;2023-06-10T09:34:10;3.25;;;2.65;;
45007;SDS011;30743;52.008;5.644;2023-06-10T09:36:37;3.47;;;2.60;;
45007;SDS011;30743;52.008;5.644;2023-06-10T09:39:03;5.28;;;2.80;;
45007;SDS011;30743;52.008;5.644;2023-06-10T09:41:39;4.88;;;2.92;;
45007;SDS011;30743;52.008;5.644;2023-06-10T09:44:15;3.58;;;2.55;;
45007;SDS011;30743;52.008;5.644;2023-06-10T09:46:41;4.35;;;2.75;;
45007;SDS011;30743;52.008;5.644;2023-06-10T09:49:09;3.10;;;2.20;;
45007;SDS011;30743;52.008;5.644;2023-06-10T09:54:09;4.03;;;2.80;;
45007;SDS011;30743;52.008;5.644;2023-06-10T09:56:35;7.15;;;2.65;;
45007;SDS011;30743;52.008;5.644;2023-06-10T09:59:01;6.82;;;3.00;;
45007;SDS011;30743;52.008;5.644;2023-06-10T10:01:28;2.85;;;2.50;;
45007;SDS011;30743;52.008;5.644;2023-06-10T10:03:55;5.75;;;2.80;;
45007;SDS011;30743;52.008;5.644;2023-06-10T10:06:20;5.65;;;2.53;;
45007;SDS011;30743;52.008;5.644;2023-06-10T10:08:47;4.57;;;2.72;;
45007;SDS011;30743;52.008;5.644;2023-06-10T10:11:17;4.68;;;2.85;;
45007;SDS011;30743;52.008;5.644;2023-06-10T10:13:46;3.58;;;2.45;;
45007;SDS011;30743;52.008;5.644;2023-06-10T10:16:17;4.30;;;3.03;;
45007;SDS011;30743;52.008;5.644;2023-06-10T10:18:54;3.83;;;2.67;;
45007;SDS011;30743;52.008;5.644;2023-06-10T10:21:22;4.22;;;2.67;;
45007;SDS011;30743;52.008;5.644;2023-06-10T10:23:58;3.42;;;2.60;;
45007;SDS011;30743;52.008;5.644;2023-06-10T10:26:30;3.65;;;2.45;;
45007;SDS011;30743;52.008;5.644;2023-06-10T10:31:30;3.78;;;2.47;;
45007;SDS011;30743;52.008;5.644;2023-06-10T10:34:00;3.67;;;2.63;;
45007;SDS011;30743;52.008;5.644;2023-06-10T10:36:31;5.45;;;2.83;;
45007;SDS011;30743;52.008;5.644;2023-06-10T10:38:57;3.10;;;2.40;;
45007;SDS011;30743;52.008;5.644;2023-06-10T10:41:23;4.57;;;2.95;;
45007;SDS011;30743;52.008;5.644;2023-06-10T10:43:51;5.55;;;2.55;;
45007;SDS011;30743;52.008;5.644;2023-06-10T10:46:18;4.05;;;2.63;;
45007;SDS011;30743;52.008;5.644;2023-06-10T10:48:44;4.97;;;2.97;;
45007;SDS011;30743;52.008;5.644;2023-06-10T10:51:11;3.63;;;2.80;;
45007;SDS011;30743;52.008;5.644;2023-06-10T10:53:37;4.40;;;3.05;;
45007;SDS011;30743;52.008;5.644;2023-06-10T10:58:33;4.78;;;2.65;;
45007;SDS011;30743;52.008;5.644;2023-06-10T11:00:59;4.10;;;2.75;;
45007;SDS011;30743;52.008;5.644;2023-06-10T11:03:28;3.78;;;2.85;;
45007;SDS011;30743;52.008;5.644;2023-06-10T11:05:57;3.72;;;2.67;;
45007;SDS011;30743;52.008;5.644;2023-06-10T11:10:57;4.85;;;3.00;;
45007;SDS011;30743;52.008;5.644;2023-06-10T11:13:23;3.95;;;2.70;;
45007;SDS011;30743;52.008;5.644;2023-06-10T11:15:51;6.88;;;2.78;;
45007;SDS011;30743;52.008;5.644;2023-06-10T11:18:25;4.45;;;2.67;;
45007;SDS011;30743;52.008;5.644;2023-06-10T11:20:52;3.63;;;2.65;;
45007;SDS011;30743;52.008;5.644;2023-06-10T11:29:00;3.88;;;2.63;;
45007;SDS011;30743;52.008;5.644;2023-06-10T11:31:31;4.40;;;2.70;;
45007;SDS011;30743;52.008;5.644;2023-06-10T11:34:23;5.20;;;2.78;;
45007;SDS011;30743;52.008;5.644;2023-06-10T11:36:49;4.45;;;2.58;;
45007;SDS011;30743;52.008;5.644;2023-06-10T11:39:16;6.55;;;3.03;;
45007;SDS011;30743;52.008;5.644;2023-06-10T11:41:43;5.03;;;2.83;;
45007;SDS011;30743;52.008;5.644;2023-06-10T11:44:11;3.63;;;2.60;;
45007;SDS011;30743;52.008;5.644;2023-06-10T11:46:37;5.00;;;2.95;;
45007;SDS011;30743;52.008;5.644;2023-06-10T11:49:04;4.72;;;2.92;;
45007;SDS011;30743;52.008;5.644;2023-06-10T11:51:37;4.60;;;3.03;;
45007;SDS011;30743;52.008;5.644;2023-06-10T11:54:05;3.78;;;2.72;;
45007;SDS011;30743;52.008;5.644;2023-06-10T11:56:33;4.55;;;3.10;;
45007;SDS011;30743;52.008;5.644;2023-06-10T11:59:00;3.80;;;2.60;;
45007;SDS011;30743;52.008;5.644;2023-06-10T12:01:31;4.47;;;2.78;;
45007;SDS011;30743;52.008;5.644;2023-06-10T12:04:02;5.03;;;3.42;;
45007;SDS011;30743;52.008;5.644;2023-06-10T12:09:20;3.80;;;3.08;;
45007;SDS011;30743;52.008;5.644;2023-06-10T12:11:51;3.30;;;2.70;;
45007;SDS011;30743;52.008;5.644;2023-06-10T12:17:18;5.50;;;3.10;;
45007;SDS011;30743;52.008;5.644;2023-06-10T12:19:46;11.55;;;2.90;;
45007;SDS011;30743;52.008;5.644;2023-06-10T12:22:12;4.18;;;3.22;;
45007;SDS011;30743;52.008;5.644;2023-06-10T12:24:45;3.80;;;3.38;;
45007;SDS011;30743;52.008;5.644;2023-06-10T12:27:31;3.85;;;3.20;;
45007;SDS011;30743;52.008;5.644;2023-06-10T12:29:58;4.20;;;3.10;;
45007;SDS011;30743;52.008;5.644;2023-06-10T12:35:05;6.47;;;3.17;;
45007;SDS011;30743;52.008;5.644;2023-06-10T12:37:31;4.38;;;3.20;;
45007;SDS011;30743;52.008;5.644;2023-06-10T12:40:02;4.28;;;3.40;;
45007;SDS011;30743;52.008;5.644;2023-06-10T12:42:29;14.63;;;3.53;;
45007;SDS011;30743;52.008;5.644;2023-06-10T12:44:55;7.65;;;3.13;;
45007;SDS011;30743;52.008;5.644;2023-06-10T12:47:32;5.75;;;3.17;;
45007;SDS011;30743;52.008;5.644;2023-06-10T12:50:03;2.92;;;2.63;;
45007;SDS011;30743;52.008;5.644;2023-06-10T12:52:30;4.57;;;3.20;;
45007;SDS011;30743;52.008;5.644;2023-06-10T12:54:55;3.72;;;2.90;;
45007;SDS011;30743;52.008;5.644;2023-06-10T12:57:21;3.13;;;2.53;;
45007;SDS011;30743;52.008;5.644;2023-06-10T12:59:47;4.15;;;2.90;;
45007;SDS011;30743;52.008;5.644;2023-06-10T13:02:20;5.13;;;3.13;;
45007;SDS011;30743;52.008;5.644;2023-06-10T13:04:46;5.53;;;2.72;;
45007;SDS011;30743;52.008;5.644;2023-06-10T13:07:12;8.82;;;3.38;;
45007;SDS011;30743;52.008;5.644;2023-06-10T13:09:38;6.70;;;3.40;;
45007;SDS011;30743;52.008;5.644;2023-06-10T13:12:04;4.82;;;2.90;;
45007;SDS011;30743;52.008;5.644;2023-06-10T13:14:30;4.47;;;3.00;;
45007;SDS011;30743;52.008;5.644;2023-06-10T13:16:56;3.92;;;3.08;;
45007;SDS011;30743;52.008;5.644;2023-06-10T13:19:21;3.95;;;3.10;;
45007;SDS011;30743;52.008;5.644;2023-06-10T13:21:47;3.63;;;3.17;;
45007;SDS011;30743;52.008;5.644;2023-06-10T13:24:13;5.78;;;2.78;;
45007;SDS011;30743;52.008;5.644;2023-06-10T13:26:39;5.07;;;3.00;;
45007;SDS011;30743;52.008;5.644;2023-06-10T13:29:04;5.07;;;3.20;;
45007;SDS011;30743;52.008;5.644;2023-06-10T13:31:30;4.65;;;2.75;;
45007;SDS011;30743;52.008;5.644;2023-06-10T13:33:57;5.38;;;2.90;;
45007;SDS011;30743;52.008;5.644;2023-06-10T13:36:23;4.00;;;2.80;;
45007;SDS011;30743;52.008;5.644;2023-06-10T13:38:48;5.80;;;3.03;;
45007;SDS011;30743;52.008;5.644;2023-06-10T13:41:14;4.88;;;3.45;;
45007;SDS011;30743;52.008;5.644;2023-06-10T13:43:40;4.68;;;3.05;;
45007;SDS011;30743;52.008;5.644;2023-06-10T13:46:05;3.80;;;3.25;;
45007;SDS011;30743;52.008;5.644;2023-06-10T13:48:31;6.10;;;3.00;;
45007;SDS011;30743;52.008;5.644;2023-06-10T13:50:56;3.95;;;3.00;;
45007;SDS011;30743;52.008;5.644;2023-06-10T13:53:22;4.82;;;2.85;;
45007;SDS011;30743;52.008;5.644;2023-06-10T13:55:48;3.92;;;2.65;;
45007;SDS011;30743;52.008;5.644;2023-06-10T13:58:13;5.38;;;3.30;;
45007;SDS011;30743;52.008;5.644;2023-06-10T14:00:39;4.53;;;2.80;;
45007;SDS011;30743;52.008;5.644;2023-06-10T14:03:04;6.10;;;3.50;;
45007;SDS011;30743;52.008;5.644;2023-06-10T14:05:30;4.22;;;2.83;;
45007;SDS011;30743;52.008;5.644;2023-06-10T14:07:55;9.32;;;3.33;;
45007;SDS011;30743;52.008;5.644;2023-06-10T14:10:21;3.10;;;2.80;;
45007;SDS011;30743;52.008;5.644;2023-06-10T14:12:47;4.63;;;2.90;;
45007;SDS011;30743;52.008;5.644;2023-06-10T14:15:13;6.50;;;3.08;;
45007;SDS011;30743;52.008;5.644;2023-06-10T14:17:38;4.32;;;2.88;;
45007;SDS011;30743;52.008;5.644;2023-06-10T14:20:04;5.00;;;3.03;;
45007;SDS011;30743;52.008;5.644;2023-06-10T14:22:30;3.97;;;2.95;;
45007;SDS011;30743;52.008;5.644;2023-06-10T14:24:55;6.57;;;3.05;;
45007;SDS011;30743;52.008;5.644;2023-06-10T14:27:21;5.07;;;2.85;;
45007;SDS011;30743;52.008;5.644;2023-06-10T14:29:47;6.13;;;3.40;;
45007;SDS011;30743;52.008;5.644;2023-06-10T14:32:13;5.45;;;2.70;;
45007;SDS011;30743;52.008;5.644;2023-06-10T14:34:39;5.18;;;3.30;;
45007;SDS011;30743;52.008;5.644;2023-06-10T14:37:06;6.75;;;3.28;;
45007;SDS011;30743;52.008;5.644;2023-06-10T14:42:00;7.07;;;3.08;;
45007;SDS011;30743;52.008;5.644;2023-06-10T14:44:25;4.82;;;2.75;;
45007;SDS011;30743;52.008;5.644;2023-06-10T14:46:51;6.30;;;2.75;;
45007;SDS011;30743;52.008;5.644;2023-06-10T14:49:16;3.28;;;2.60;;
45007;SDS011;30743;52.008;5.644;2023-06-10T14:51:42;6.22;;;3.05;;
45007;SDS011;30743;52.008;5.644;2023-06-10T14:54:07;3.78;;;2.60;;
45007;SDS011;30743;52.008;5.644;2023-06-10T14:56:33;5.85;;;3.28;;
45007;SDS011;30743;52.008;5.644;2023-06-10T14:58:58;4.03;;;2.80;;
45007;SDS011;30743;52.008;5.644;2023-06-10T15:01:24;4.75;;;3.10;;
45007;SDS011;30743;52.008;5.644;2023-06-10T15:03:49;6.53;;;3.20;;
45007;SDS011;30743;52.008;5.644;2023-06-10T15:06:15;3.50;;;2.80;;
45007;SDS011;30743;52.008;5.644;2023-06-10T15:08:45;3.60;;;2.78;;
45007;SDS011;30743;52.008;5.644;2023-06-10T15:11:13;4.32;;;2.70;;
45007;SDS011;30743;52.008;5.644;2023-06-10T15:13:39;3.10;;;2.80;;
45007;SDS011;30743;52.008;5.644;2023-06-10T15:16:04;5.00;;;2.92;;
45007;SDS011;30743;52.008;5.644;2023-06-10T15:18:31;3.20;;;2.85;;
45007;SDS011;30743;52.008;5.644;2023-06-10T15:20:56;4.68;;;3.05;;